Harman, West Virginia
Current Conditions -  °F | °C
As of 1:51 AM on Thursday 23 Oct 2014 (Local Time) from KEKN Reporting Station
Overcast Overcast  
Wind Chill: 39°   Ceiling: 1000
Heat Index: 43°   Visibility: 10mi
Dew Point: 42°   Wind: 6mph
Humidity: 97%   Direction: 350°N
Pressure: 30.13"   Gusts: NA
Location:  38.92°N, 79.53°W
Report Text: KEKN 230551Z AUTO 35005KT 10SM OVC010 06/06 A3013 RMK AO2 RAB15E42 SLP216 P0000 60000 T00610056 10072 20061 56009 TSNO
Loading
Personal Weather Stations






























Interactive Weather Map
Tropical Storm Tracking
New forecast layout! Learn more

10-Day Weather Forecast

Advertisements
Track Severe Weather on mobile